Time;durP1;ratioP1;P1;durP2;ratioP2;P2;SDS_P1;SDS_P2;PMS_P1;PMS_P2;Temp;Humidity;BMP_temperature;BMP_pressure;BME280_temperature;BME280_humidity;BME280_pressure;Samples;Min_cycle;Max_cycle;Signal;HPM_P1;HPM_P2
2022/10/31 00:00:48;;;;;;;4.37;3.00;;;;;;;;;;5108665;28;20287;-40
2022/10/31 00:03:15;;;;;;;6.00;3.27;;;;;;;;;;5099561;28;20215;-44
2022/10/31 00:05:44;;;;;;;4.57;3.00;;;;;;;;;;5106052;28;20196;-43
2022/10/31 00:08:11;;;;;;;5.20;3.20;;;;;;;;;;5106426;28;20207;-43
2022/10/31 00:10:39;;;;;;;5.60;3.50;;;;;;;;;;5105318;28;20234;-43
2022/10/31 00:13:06;;;;;;;6.93;3.63;;;;;;;;;;5101016;28;20699;-40
2022/10/31 00:15:34;;;;;;;7.03;3.27;;;;;;;;;;5097953;28;20232;-41
2022/10/31 00:18:01;;;;;;;7.00;3.60;;;;;;;;;;5101488;28;20203;-43
2022/10/31 00:20:28;;;;;;;6.00;3.60;;;;;;;;;;5103322;28;20435;-40
2022/10/31 00:22:59;;;;;;;4.90;3.53;;;;;;;;;;5192194;22;20234;-35
2022/10/31 00:25:26;;;;;;;11.07;4.30;;;;;;;;;;5090677;28;20246;-33
2022/10/31 00:27:53;;;;;;;9.47;4.13;;;;;;;;;;5095911;28;20428;-30
2022/10/31 00:30:20;;;;;;;12.50;3.33;;;;;;;;;;5073436;28;20229;-32
2022/10/31 00:32:47;;;;;;;8.37;3.40;;;;;;;;;;5080278;28;20207;-30
2022/10/31 00:35:14;;;;;;;6.60;3.20;;;;;;;;;;5078403;28;20205;-34
2022/10/31 00:37:42;;;;;;;5.43;2.87;;;;;;;;;;5080242;28;20193;-33
2022/10/31 00:40:11;;;;;;;4.67;3.13;;;;;;;;;;5076522;28;20222;-32
2022/10/31 00:42:38;;;;;;;10.37;4.03;;;;;;;;;;5088168;28;20234;-31
2022/10/31 00:45:06;;;;;;;5.33;3.27;;;;;;;;;;5067077;28;20404;-30
2022/10/31 00:47:33;;;;;;;7.20;3.50;;;;;;;;;;5077101;28;20210;-33
2022/10/31 00:50:00;;;;;;;5.23;2.80;;;;;;;;;;5078772;28;20315;-31
2022/10/31 00:52:27;;;;;;;4.90;3.20;;;;;;;;;;5083164;28;20273;-34
2022/10/31 00:54:54;;;;;;;13.50;4.43;;;;;;;;;;5087786;28;20200;-36
2022/10/31 00:57:23;;;;;;;7.80;3.40;;;;;;;;;;5074137;28;20322;-34
2022/10/31 00:59:50;;;;;;;3.03;2.57;;;;;;;;;;5071769;28;20193;-35
2022/10/31 01:02:17;;;;;;;4.37;3.50;;;;;;;;;;5076676;28;20203;-32
2022/10/31 01:04:44;;;;;;;4.47;2.93;;;;;;;;;;5072743;28;20209;-33
2022/10/31 01:07:12;;;;;;;4.43;3.13;;;;;;;;;;5072834;28;20250;-31
2022/10/31 01:09:39;;;;;;;6.63;2.97;;;;;;;;;;5075385;28;20274;-35
2022/10/31 01:12:06;;;;;;;5.23;3.13;;;;;;;;;;5087201;28;20212;-31
2022/10/31 01:14:35;;;;;;;4.93;3.40;;;;;;;;;;5088447;28;20202;-33
2022/10/31 01:17:02;;;;;;;6.77;3.70;;;;;;;;;;5076119;28;20220;-34
2022/10/31 01:19:29;;;;;;;4.60;2.70;;;;;;;;;;5083569;28;20209;-34
2022/10/31 01:21:56;;;;;;;5.10;3.17;;;;;;;;;;5081626;28;20312;-35
2022/10/31 01:24:24;;;;;;;7.70;3.43;;;;;;;;;;5073346;28;20292;-32
2022/10/31 01:26:51;;;;;;;6.00;3.83;;;;;;;;;;5076607;28;20203;-36
2022/10/31 01:29:18;;;;;;;4.73;3.30;;;;;;;;;;5079317;28;20208;-36
2022/10/31 01:31:47;;;;;;;2.73;2.53;;;;;;;;;;5082161;28;20235;-33
2022/10/31 01:34:15;;;;;;;3.40;2.87;;;;;;;;;;5088064;28;20208;-35
2022/10/31 01:36:44;;;;;;;3.80;2.30;;;;;;;;;;5092238;28;20217;-31
2022/10/31 01:39:12;;;;;;;3.43;2.80;;;;;;;;;;5078562;28;20232;-34
2022/10/31 01:41:41;;;;;;;3.33;2.90;;;;;;;;;;5078777;28;20728;-34
2022/10/31 01:44:23;;;;;;;6.77;2.40;;;;;;;;;;5072313;28;20233;-35
2022/10/31 01:46:53;;;;;;;3.13;2.27;;;;;;;;;;5071851;28;20208;-34
2022/10/31 01:49:23;;;;;;;3.90;2.93;;;;;;;;;;5083894;28;20205;-34
2022/10/31 01:51:52;;;;;;;4.77;2.83;;;;;;;;;;5077929;28;20221;-32
2022/10/31 01:54:21;;;;;;;6.33;3.00;;;;;;;;;;5072978;28;20213;-35
2022/10/31 01:56:50;;;;;;;8.17;2.87;;;;;;;;;;5072426;28;20243;-34
2022/10/31 01:59:19;;;;;;;6.13;3.37;;;;;;;;;;5073463;28;20293;-31
2022/10/31 02:01:47;;;;;;;6.80;3.00;;;;;;;;;;5082315;28;20220;-37
2022/10/31 02:04:16;;;;;;;6.57;3.27;;;;;;;;;;5079898;28;20215;-36
2022/10/31 02:06:54;;;;;;;6.67;3.00;;;;;;;;;;5088980;28;20207;-32
2022/10/31 02:09:23;;;;;;;4.97;2.70;;;;;;;;;;5086750;28;20209;-32
2022/10/31 02:11:51;;;;;;;7.47;3.23;;;;;;;;;;5090095;28;20220;-34
2022/10/31 02:14:18;;;;;;;3.10;2.57;;;;;;;;;;5082075;28;20201;-33
2022/10/31 02:16:46;;;;;;;5.03;2.83;;;;;;;;;;5088572;28;20217;-32
2022/10/31 02:19:15;;;;;;;5.53;3.17;;;;;;;;;;5084449;28;20201;-32
2022/10/31 02:21:46;;;;;;;6.93;3.13;;;;;;;;;;5083513;28;20236;-35
2022/10/31 02:24:21;;;;;;;4.37;3.13;;;;;;;;;;5072148;28;20214;-32
2022/10/31 02:26:55;;;;;;;2.97;2.60;;;;;;;;;;5087901;28;20287;-32
2022/10/31 02:29:40;;;;;;;4.97;3.20;;;;;;;;;;5082080;28;20212;-32
2022/10/31 02:32:11;;;;;;;5.00;3.03;;;;;;;;;;5082480;28;20201;-34
2022/10/31 02:34:41;;;;;;;4.90;3.17;;;;;;;;;;5082238;28;20576;-34
2022/10/31 02:37:11;;;;;;;5.83;2.83;;;;;;;;;;5090436;28;20224;-33
2022/10/31 02:39:41;;;;;;;4.47;2.50;;;;;;;;;;5089128;28;20197;-34
2022/10/31 02:42:10;;;;;;;4.87;3.07;;;;;;;;;;5083600;28;20197;-33
2022/10/31 02:44:39;;;;;;;3.53;2.60;;;;;;;;;;5077338;28;20201;-35
2022/10/31 02:47:08;;;;;;;3.10;2.80;;;;;;;;;;5071044;28;20268;-32
2022/10/31 02:49:39;;;;;;;4.50;2.90;;;;;;;;;;5077130;28;20282;-30
2022/10/31 02:52:15;;;;;;;3.57;2.70;;;;;;;;;;5077501;28;20205;-31
2022/10/31 02:54:42;;;;;;;7.07;3.03;;;;;;;;;;5091250;28;20199;-31
2022/10/31 02:57:11;;;;;;;2.87;2.50;;;;;;;;;;5087843;28;20229;-31
2022/10/31 02:59:42;;;;;;;3.00;2.57;;;;;;;;;;5084733;28;20197;-29
2022/10/31 03:02:13;;;;;;;2.70;2.50;;;;;;;;;;5078721;28;20291;-35
2022/10/31 03:04:49;;;;;;;5.13;2.50;;;;;;;;;;5077443;28;20242;-32
2022/10/31 03:07:22;;;;;;;3.57;2.80;;;;;;;;;;5074561;28;20283;-31
2022/10/31 03:09:54;;;;;;;3.87;2.77;;;;;;;;;;5078636;28;20198;-34
2022/10/31 03:12:24;;;;;;;4.83;2.73;;;;;;;;;;5081822;28;20200;-31
2022/10/31 03:14:55;;;;;;;5.50;2.60;;;;;;;;;;5081445;28;20205;-29
2022/10/31 03:17:24;;;;;;;3.87;2.60;;;;;;;;;;5083912;28;20212;-31
2022/10/31 03:19:54;;;;;;;3.23;2.40;;;;;;;;;;5085373;28;20197;-30
2022/10/31 03:22:23;;;;;;;2.27;2.07;;;;;;;;;;5074390;28;20209;-30
2022/10/31 03:24:51;;;;;;;2.47;2.27;;;;;;;;;;5087440;28;20215;-33
2022/10/31 03:27:20;;;;;;;4.83;2.33;;;;;;;;;;5087769;28;20300;-30
2022/10/31 03:29:49;;;;;;;2.80;2.43;;;;;;;;;;5083593;28;20211;-33
2022/10/31 03:32:18;;;;;;;2.73;2.37;;;;;;;;;;5079014;28;20205;-35
2022/10/31 03:34:46;;;;;;;3.33;2.37;;;;;;;;;;5074186;28;20240;-33
2022/10/31 03:37:18;;;;;;;4.93;2.73;;;;;;;;;;5081675;28;20225;-32
2022/10/31 03:39:46;;;;;;;4.43;2.57;;;;;;;;;;5074349;28;20201;-34
2022/10/31 03:42:15;;;;;;;5.27;2.80;;;;;;;;;;5107352;28;20215;-31
2022/10/31 03:44:44;;;;;;;3.33;2.40;;;;;;;;;;5078003;28;20204;-36
2022/10/31 03:47:11;;;;;;;5.97;2.70;;;;;;;;;;5083507;28;20206;-33
2022/10/31 03:49:39;;;;;;;3.10;2.50;;;;;;;;;;5077897;28;20200;-32
2022/10/31 03:52:13;;;;;;;2.83;2.30;;;;;;;;;;5086859;28;20215;-31
2022/10/31 03:54:43;;;;;;;5.30;2.93;;;;;;;;;;5075203;28;20196;-31
2022/10/31 03:57:16;;;;;;;3.10;2.50;;;;;;;;;;5070522;28;20294;-34
2022/10/31 03:59:45;;;;;;;2.60;2.03;;;;;;;;;;5081826;28;20237;-33
2022/10/31 04:02:15;;;;;;;3.40;2.47;;;;;;;;;;5089822;28;20193;-32
2022/10/31 04:04:43;;;;;;;4.40;2.80;;;;;;;;;;5081494;28;20209;-32
2022/10/31 04:07:12;;;;;;;3.67;2.80;;;;;;;;;;5086259;28;20307;-31
2022/10/31 04:09:41;;;;;;;3.80;2.60;;;;;;;;;;5090027;28;20204;-37
2022/10/31 04:12:10;;;;;;;3.03;2.23;;;;;;;;;;5080317;28;20207;-32
2022/10/31 04:14:39;;;;;;;2.43;2.17;;;;;;;;;;5083367;28;20197;-31
2022/10/31 04:17:08;;;;;;;3.80;2.67;;;;;;;;;;5078801;28;20232;-31
2022/10/31 04:19:35;;;;;;;5.30;2.63;;;;;;;;;;5077358;28;20209;-34
2022/10/31 04:22:02;;;;;;;3.57;2.53;;;;;;;;;;5082259;28;20204;-34
2022/10/31 04:24:30;;;;;;;5.07;2.50;;;;;;;;;;5070047;28;20209;-34
2022/10/31 04:26:57;;;;;;;3.13;2.07;;;;;;;;;;5070041;28;20303;-32
2022/10/31 04:29:25;;;;;;;2.47;2.27;;;;;;;;;;5081176;28;20201;-34
2022/10/31 04:31:52;;;;;;;2.40;2.20;;;;;;;;;;5082743;28;20228;-34
2022/10/31 04:34:19;;;;;;;2.40;2.20;;;;;;;;;;5080913;28;20204;-34
2022/10/31 04:36:47;;;;;;;2.30;2.00;;;;;;;;;;5081239;28;20229;-35
2022/10/31 04:39:14;;;;;;;5.27;2.57;;;;;;;;;;5084526;28;20382;-36
2022/10/31 04:41:41;;;;;;;3.07;2.50;;;;;;;;;;5088467;28;20212;-30
2022/10/31 04:44:08;;;;;;;4.20;2.60;;;;;;;;;;5081795;28;20209;-34
2022/10/31 04:46:37;;;;;;;4.47;2.77;;;;;;;;;;5084398;28;20209;-36
2022/10/31 04:49:04;;;;;;;4.43;2.80;;;;;;;;;;5089833;28;20201;-34
2022/10/31 04:51:31;;;;;;;2.93;2.60;;;;;;;;;;5082471;28;20221;-30
2022/10/31 04:53:58;;;;;;;4.20;2.57;;;;;;;;;;5082137;28;20240;-35
2022/10/31 04:56:25;;;;;;;3.80;2.67;;;;;;;;;;5073440;28;20205;-31
2022/10/31 04:58:52;;;;;;;3.33;2.43;;;;;;;;;;5073537;28;20231;-32
2022/10/31 05:01:19;;;;;;;6.23;3.23;;;;;;;;;;5081072;28;20209;-37
2022/10/31 05:03:48;;;;;;;7.17;3.00;;;;;;;;;;5073321;28;20209;-33
2022/10/31 05:06:16;;;;;;;4.40;2.80;;;;;;;;;;5089842;28;20205;-36
2022/10/31 05:08:43;;;;;;;3.73;2.40;;;;;;;;;;5078336;28;20216;-30
2022/10/31 05:11:10;;;;;;;5.67;3.27;;;;;;;;;;5084823;28;20225;-33
2022/10/31 05:13:38;;;;;;;2.80;2.50;;;;;;;;;;5086258;28;20201;-34
2022/10/31 05:16:05;;;;;;;4.33;2.60;;;;;;;;;;5091306;28;20295;-32
2022/10/31 05:18:32;;;;;;;5.77;3.03;;;;;;;;;;5072209;28;20229;-33
2022/10/31 05:21:01;;;;;;;5.33;3.20;;;;;;;;;;5080480;28;20224;-33
2022/10/31 05:23:28;;;;;;;3.87;2.93;;;;;;;;;;5081824;28;20208;-34
2022/10/31 05:25:55;;;;;;;3.57;2.37;;;;;;;;;;5073314;28;20288;-35
2022/10/31 05:28:22;;;;;;;3.30;2.90;;;;;;;;;;5071464;28;20204;-35
2022/10/31 05:30:49;;;;;;;3.67;3.00;;;;;;;;;;5087108;28;20221;-33
2022/10/31 05:33:16;;;;;;;2.70;2.50;;;;;;;;;;5101242;28;20196;-36
2022/10/31 05:35:43;;;;;;;3.63;2.70;;;;;;;;;;5080530;28;20216;-32
2022/10/31 05:38:12;;;;;;;4.90;2.60;;;;;;;;;;5080790;28;20222;-34
2022/10/31 05:40:39;;;;;;;5.27;3.20;;;;;;;;;;5078874;28;20250;-31
2022/10/31 05:43:06;;;;;;;4.73;2.87;;;;;;;;;;5077600;28;20223;-32
2022/10/31 05:45:33;;;;;;;5.57;2.80;;;;;;;;;;5077309;28;20207;-34
2022/10/31 05:48:01;;;;;;;5.27;3.10;;;;;;;;;;5077006;28;20193;-37
2022/10/31 05:50:29;;;;;;;4.60;3.00;;;;;;;;;;5081108;28;20224;-33
2022/10/31 05:52:57;;;;;;;5.57;3.40;;;;;;;;;;5089317;28;20197;-31
2022/10/31 05:55:26;;;;;;;6.87;3.20;;;;;;;;;;5091952;28;20200;-31
2022/10/31 05:57:53;;;;;;;5.67;3.13;;;;;;;;;;5091671;28;20212;-35
2022/10/31 06:00:20;;;;;;;2.97;2.40;;;;;;;;;;5081407;28;20224;-35
2022/10/31 06:02:47;;;;;;;5.03;2.90;;;;;;;;;;5087915;28;20200;-34
2022/10/31 06:05:16;;;;;;;3.60;2.40;;;;;;;;;;5079498;28;20197;-33
2022/10/31 06:07:43;;;;;;;3.90;2.50;;;;;;;;;;5087259;28;20260;-31
2022/10/31 06:10:10;;;;;;;6.27;2.67;;;;;;;;;;5085294;28;20251;-30
2022/10/31 06:12:40;;;;;;;6.53;3.17;;;;;;;;;;5081216;28;20339;-29
2022/10/31 06:15:08;;;;;;;8.73;4.00;;;;;;;;;;5084145;28;20221;-31
2022/10/31 06:17:35;;;;;;;4.77;3.20;;;;;;;;;;5092058;28;20221;-33
2022/10/31 06:20:02;;;;;;;7.27;3.23;;;;;;;;;;5086272;28;20235;-33
2022/10/31 06:22:30;;;;;;;5.73;3.23;;;;;;;;;;5087930;28;20292;-33
2022/10/31 06:24:57;;;;;;;12.07;6.40;;;;;;;;;;5194183;22;20554;-30
2022/10/31 06:27:24;;;;;;;22.77;11.93;;;;;;;;;;5108176;28;20291;-30
2022/10/31 06:29:53;;;;;;;6.90;3.80;;;;;;;;;;5113497;28;20228;-30
2022/10/31 06:32:20;;;;;;;9.47;5.73;;;;;;;;;;5113550;28;20212;-29
2022/10/31 06:34:48;;;;;;;6.93;4.43;;;;;;;;;;5108786;27;20210;-31
2022/10/31 06:37:16;;;;;;;11.57;5.67;;;;;;;;;;5109131;28;20212;-32
2022/10/31 06:39:43;;;;;;;8.00;4.80;;;;;;;;;;5108646;28;20203;-33
2022/10/31 06:42:10;;;;;;;8.03;4.80;;;;;;;;;;5133851;27;20195;-31
2022/10/31 06:44:37;;;;;;;9.43;4.77;;;;;;;;;;5134514;27;20275;-29
2022/10/31 06:47:07;;;;;;;7.17;4.17;;;;;;;;;;5108625;27;20211;-32
2022/10/31 06:49:34;;;;;;;6.60;4.20;;;;;;;;;;5113507;27;20196;-32
2022/10/31 06:52:01;;;;;;;5.70;3.50;;;;;;;;;;5110282;28;20211;-29
2022/10/31 06:54:37;;;;;;;6.20;3.60;;;;;;;;;;5114545;28;20200;-29
2022/10/31 06:57:04;;;;;;;6.70;4.77;;;;;;;;;;5108499;28;20231;-31
2022/10/31 06:59:31;;;;;;;8.80;5.43;;;;;;;;;;5106177;27;20230;-31
2022/10/31 07:01:59;;;;;;;7.60;5.60;;;;;;;;;;5115988;27;20196;-33
2022/10/31 07:04:27;;;;;;;7.67;5.63;;;;;;;;;;5110696;28;20258;-30
2022/10/31 07:06:54;;;;;;;6.87;5.50;;;;;;;;;;5109183;28;20223;-34
2022/10/31 07:09:21;;;;;;;6.40;4.83;;;;;;;;;;5111841;28;20192;-33
2022/10/31 07:11:56;;;;;;;6.50;4.63;;;;;;;;;;5112714;28;20234;-31
2022/10/31 07:14:23;;;;;;;7.37;4.33;;;;;;;;;;5106103;27;20199;-30
2022/10/31 07:16:51;;;;;;;5.60;3.53;;;;;;;;;;5122592;27;20582;-30
2022/10/31 07:19:18;;;;;;;5.37;3.80;;;;;;;;;;5115699;27;20220;-33
2022/10/31 07:21:47;;;;;;;3.27;2.97;;;;;;;;;;5108684;28;20216;-31
2022/10/31 07:24:14;;;;;;;5.07;3.07;;;;;;;;;;5112902;28;20296;-29
2022/10/31 07:26:42;;;;;;;5.07;3.13;;;;;;;;;;5113589;28;20204;-31
2022/10/31 07:29:09;;;;;;;4.23;2.93;;;;;;;;;;5110745;27;20201;-30
2022/10/31 07:31:36;;;;;;;10.47;5.70;;;;;;;;;;5117639;27;20676;-33
2022/10/31 07:34:03;;;;;;;7.63;3.80;;;;;;;;;;5110638;27;20200;-32
2022/10/31 07:36:30;;;;;;;13.97;8.20;;;;;;;;;;5105091;27;20204;-33
2022/10/31 07:38:59;;;;;;;3.17;2.90;;;;;;;;;;5112845;27;20226;-30
2022/10/31 07:41:26;;;;;;;6.23;3.10;;;;;;;;;;5103478;28;20220;-30
2022/10/31 07:43:53;;;;;;;4.00;3.00;;;;;;;;;;5111509;28;20207;-33
2022/10/31 07:46:24;;;;;;;5.20;3.53;;;;;;;;;;5097304;28;20199;-32
2022/10/31 07:48:51;;;;;;;4.57;3.37;;;;;;;;;;5102239;28;20193;-32
2022/10/31 07:51:18;;;;;;;3.53;3.00;;;;;;;;;;5110675;27;20250;-32
2022/10/31 07:53:46;;;;;;;5.93;3.27;;;;;;;;;;5110727;28;20196;-34
2022/10/31 07:56:16;;;;;;;2.90;2.60;;;;;;;;;;5107768;28;20206;-30
2022/10/31 07:58:45;;;;;;;5.73;3.43;;;;;;;;;;5100783;28;20216;-32
2022/10/31 08:01:12;;;;;;;3.23;2.93;;;;;;;;;;5119824;27;20221;-33
2022/10/31 08:03:39;;;;;;;4.37;2.80;;;;;;;;;;5124552;27;20254;-30
2022/10/31 08:06:07;;;;;;;3.73;3.33;;;;;;;;;;5108224;27;20296;-31
2022/10/31 08:08:34;;;;;;;4.37;2.90;;;;;;;;;;5115937;27;20202;-33
2022/10/31 08:11:01;;;;;;;4.00;3.10;;;;;;;;;;5108334;28;20228;-31
2022/10/31 08:13:29;;;;;;;4.17;3.30;;;;;;;;;;5099739;28;20207;-31
2022/10/31 08:15:56;;;;;;;5.93;3.20;;;;;;;;;;5108261;28;20295;-33
2022/10/31 08:18:24;;;;;;;3.60;3.30;;;;;;;;;;5117018;28;20212;-30
2022/10/31 08:20:52;;;;;;;6.57;3.87;;;;;;;;;;5103055;27;20231;-32
2022/10/31 08:23:19;;;;;;;9.83;3.73;;;;;;;;;;5124011;27;20207;-30
2022/10/31 08:25:47;;;;;;;3.97;3.33;;;;;;;;;;5122065;27;20199;-34
2022/10/31 08:28:14;;;;;;;6.60;3.40;;;;;;;;;;5127153;27;20204;-33
2022/10/31 08:30:43;;;;;;;4.93;2.93;;;;;;;;;;5118019;28;20229;-29
2022/10/31 08:33:14;;;;;;;5.10;3.60;;;;;;;;;;5117406;28;20290;-34
2022/10/31 08:35:41;;;;;;;4.27;3.30;;;;;;;;;;5108965;27;20203;-33
2022/10/31 08:38:09;;;;;;;8.43;3.30;;;;;;;;;;5117987;27;20199;-34
2022/10/31 08:40:37;;;;;;;4.63;3.53;;;;;;;;;;5117783;28;20225;-29
2022/10/31 08:43:05;;;;;;;4.17;3.03;;;;;;;;;;5110048;28;20287;-32
2022/10/31 08:45:39;;;;;;;5.60;3.00;;;;;;;;;;5107142;28;20200;-35
2022/10/31 08:48:08;;;;;;;6.30;3.70;;;;;;;;;;5121382;27;20200;-31
2022/10/31 08:50:41;;;;;;;6.37;4.10;;;;;;;;;;5110251;28;20229;-32
2022/10/31 08:53:11;;;;;;;3.97;3.57;;;;;;;;;;5128228;27;20196;-30
2022/10/31 08:55:39;;;;;;;7.30;3.97;;;;;;;;;;5117418;27;20199;-31
2022/10/31 08:58:06;;;;;;;5.13;3.40;;;;;;;;;;5124783;27;20196;-32
2022/10/31 09:00:33;;;;;;;6.07;4.03;;;;;;;;;;5137518;27;20223;-29
2022/10/31 09:03:01;;;;;;;5.97;3.50;;;;;;;;;;5124973;27;20639;-29
2022/10/31 09:05:30;;;;;;;8.23;3.30;;;;;;;;;;5117325;27;20408;-30
2022/10/31 09:07:58;;;;;;;8.50;3.63;;;;;;;;;;5122616;27;20588;-31
2022/10/31 09:10:25;;;;;;;4.47;3.03;;;;;;;;;;5123184;27;20216;-30
2022/10/31 09:12:56;;;;;;;3.97;3.17;;;;;;;;;;5106619;28;20295;-33
2022/10/31 09:15:45;;;;;;;5.70;3.53;;;;;;;;;;5106048;27;20449;-30
2022/10/31 09:18:13;;;;;;;5.37;2.83;;;;;;;;;;5128336;27;20195;-31
2022/10/31 09:20:42;;;;;;;3.53;3.10;;;;;;;;;;5111953;27;20229;-30
2022/10/31 09:23:10;;;;;;;4.83;3.37;;;;;;;;;;5099855;27;20247;-31
2022/10/31 09:25:38;;;;;;;10.10;3.93;;;;;;;;;;5134018;27;20282;-31
2022/10/31 09:28:06;;;;;;;5.13;3.70;;;;;;;;;;5140055;27;20205;-30
2022/10/31 09:30:34;;;;;;;7.30;3.80;;;;;;;;;;5119740;27;20220;-29
2022/10/31 09:33:02;;;;;;;6.70;3.90;;;;;;;;;;5110177;27;20236;-28
2022/10/31 09:35:29;;;;;;;6.53;3.87;;;;;;;;;;5114033;27;20202;-30
2022/10/31 09:38:01;;;;;;;10.43;3.50;;;;;;;;;;5099981;27;20204;-32
2022/10/31 09:40:31;;;;;;;6.77;3.70;;;;;;;;;;5112287;27;20251;-30
2022/10/31 09:43:02;;;;;;;7.90;3.70;;;;;;;;;;5099985;27;20202;-30
2022/10/31 09:45:33;;;;;;;6.90;3.70;;;;;;;;;;5112279;27;20191;-30
2022/10/31 09:48:07;;;;;;;7.23;4.00;;;;;;;;;;5096958;27;20206;-34
2022/10/31 09:50:39;;;;;;;8.67;3.80;;;;;;;;;;5108074;27;20239;-32
2022/10/31 09:53:10;;;;;;;6.40;3.77;;;;;;;;;;5115068;27;20203;-31
2022/10/31 09:55:40;;;;;;;5.47;3.43;;;;;;;;;;5111128;28;20276;-29
2022/10/31 09:58:10;;;;;;;5.57;3.50;;;;;;;;;;5106977;28;20207;-27
2022/10/31 10:00:37;;;;;;;6.10;3.67;;;;;;;;;;5107804;28;20220;-29
2022/10/31 10:03:11;;;;;;;5.27;3.67;;;;;;;;;;5105866;28;20207;-28
2022/10/31 10:05:42;;;;;;;8.43;3.70;;;;;;;;;;5107357;27;20194;-29
2022/10/31 10:08:13;;;;;;;4.47;3.87;;;;;;;;;;5130804;27;20206;-31
2022/10/31 10:10:47;;;;;;;6.83;3.83;;;;;;;;;;5129826;27;20227;-31
2022/10/31 10:13:29;;;;;;;7.00;3.80;;;;;;;;;;5113200;27;20246;-30
2022/10/31 10:16:02;;;;;;;7.67;3.37;;;;;;;;;;5111116;27;20200;-30
2022/10/31 10:18:34;;;;;;;6.40;3.97;;;;;;;;;;5106542;28;20249;-32
2022/10/31 10:21:06;;;;;;;6.10;3.43;;;;;;;;;;5116106;27;20227;-30
2022/10/31 10:23:38;;;;;;;5.03;3.40;;;;;;;;;;5124063;27;20242;-33
2022/10/31 10:26:17;;;;;;;8.57;4.07;;;;;;;;;;5131372;27;20187;-29
2022/10/31 10:28:46;;;;;;;5.40;4.33;;;;;;;;;;5112950;27;20215;-32
2022/10/31 10:31:21;;;;;;;6.17;4.23;;;;;;;;;;5111882;27;20238;-32
2022/10/31 10:33:55;;;;;;;8.43;3.87;;;;;;;;;;5106746;27;20241;-34
2022/10/31 10:36:28;;;;;;;8.33;3.57;;;;;;;;;;5100534;28;20196;-29
2022/10/31 10:39:04;;;;;;;6.70;4.10;;;;;;;;;;5107571;28;20213;-30
2022/10/31 10:41:32;;;;;;;6.60;4.33;;;;;;;;;;5111243;28;20230;-31
2022/10/31 10:43:58;;;;;;;7.60;4.27;;;;;;;;;;5107262;27;20287;-31
2022/10/31 10:49:18;;;;;;;7.20;4.13;;;;;;;;;;5118720;27;20215;-31
2022/10/31 10:51:47;;;;;;;9.57;4.47;;;;;;;;;;5106252;28;20303;-31
2022/10/31 10:54:41;;;;;;;4.40;3.57;;;;;;;;;;5125108;27;20207;-32
2022/10/31 10:57:17;;;;;;;10.20;4.50;;;;;;;;;;5032570;28;20258;-31
2022/10/31 10:59:44;;;;;;;5.47;4.27;;;;;;;;;;5110052;27;20223;-32
2022/10/31 11:02:17;;;;;;;6.93;4.40;;;;;;;;;;5120334;27;20208;-33
2022/10/31 11:04:44;;;;;;;6.63;4.13;;;;;;;;;;5109567;27;20196;-35
2022/10/31 11:07:13;;;;;;;6.27;4.43;;;;;;;;;;5105702;27;20207;-33
2022/10/31 11:09:40;;;;;;;5.60;4.20;;;;;;;;;;5108127;28;20207;-34
2022/10/31 11:12:09;;;;;;;8.33;4.97;;;;;;;;;;5106550;28;20208;-32
2022/10/31 11:14:44;;;;;;;7.27;4.07;;;;;;;;;;5103985;27;20195;-32
2022/10/31 11:17:12;;;;;;;8.47;5.23;;;;;;;;;;5123502;27;20286;-33
2022/10/31 11:19:40;;;;;;;9.20;5.00;;;;;;;;;;5099081;27;20220;-30
2022/10/31 11:22:08;;;;;;;11.33;5.00;;;;;;;;;;5107225;27;20311;-31
2022/10/31 11:24:39;;;;;;;10.80;4.30;;;;;;;;;;5121232;27;20207;-33
2022/10/31 11:27:14;;;;;;;8.37;4.90;;;;;;;;;;5114108;27;20300;-31
2022/10/31 11:29:43;;;;;;;8.37;4.70;;;;;;;;;;5101338;28;20200;-31
2022/10/31 11:32:17;;;;;;;8.93;5.03;;;;;;;;;;5126017;27;20202;-31
2022/10/31 11:34:45;;;;;;;7.67;4.67;;;;;;;;;;5107299;27;20288;-29
2022/10/31 11:37:14;;;;;;;8.83;5.00;;;;;;;;;;5125748;27;20306;-32
2022/10/31 11:39:43;;;;;;;9.10;4.57;;;;;;;;;;5115817;27;20230;-30
2022/10/31 11:42:11;;;;;;;8.93;4.67;;;;;;;;;;5109142;28;20205;-32
2022/10/31 11:44:42;;;;;;;8.43;4.70;;;;;;;;;;5106887;27;20295;-31
2022/10/31 11:47:15;;;;;;;10.90;4.70;;;;;;;;;;5121067;27;20201;-32
2022/10/31 11:49:43;;;;;;;8.23;5.13;;;;;;;;;;5105302;28;20324;-33
2022/10/31 11:52:16;;;;;;;6.47;4.83;;;;;;;;;;5114317;27;20270;-29
2022/10/31 11:54:46;;;;;;;10.43;4.57;;;;;;;;;;5109976;27;20214;-32
2022/10/31 11:57:23;;;;;;;6.30;4.63;;;;;;;;;;5106402;28;20299;-33
2022/10/31 11:59:53;;;;;;;6.43;4.50;;;;;;;;;;5106300;27;20302;-33
2022/10/31 12:02:22;;;;;;;5.80;4.70;;;;;;;;;;5113592;27;20202;-31
2022/10/31 12:04:52;;;;;;;9.77;4.83;;;;;;;;;;5110904;27;20201;-31
2022/10/31 12:07:19;;;;;;;5.80;4.17;;;;;;;;;;5101148;28;20269;-35
2022/10/31 12:09:46;;;;;;;6.27;4.03;;;;;;;;;;5125590;27;20195;-31
2022/10/31 12:12:21;;;;;;;8.63;4.50;;;;;;;;;;5099658;27;20218;-30
2022/10/31 12:14:52;;;;;;;8.17;4.33;;;;;;;;;;5101034;28;20286;-33
2022/10/31 12:17:24;;;;;;;6.40;4.27;;;;;;;;;;5122265;28;20198;-30
2022/10/31 12:19:54;;;;;;;9.20;4.40;;;;;;;;;;5110979;28;20235;-33
2022/10/31 12:22:24;;;;;;;10.50;4.53;;;;;;;;;;5103200;28;20216;-29
2022/10/31 12:24:59;;;;;;;8.30;4.50;;;;;;;;;;5168417;22;20244;-31
2022/10/31 12:27:32;;;;;;;7.63;3.87;;;;;;;;;;5060838;28;20287;-34
2022/10/31 12:30:13;;;;;;;9.20;5.03;;;;;;;;;;5070176;28;20215;-30
2022/10/31 12:33:05;;;;;;;9.37;4.93;;;;;;;;;;5066037;28;20205;-29
2022/10/31 12:35:39;;;;;;;7.07;4.70;;;;;;;;;;5060250;28;20229;-30
2022/10/31 12:38:17;;;;;;;5.43;4.37;;;;;;;;;;5069253;28;20276;-34
2022/10/31 12:40:52;;;;;;;11.60;5.03;;;;;;;;;;5060000;28;20223;-29
2022/10/31 12:43:26;;;;;;;8.37;4.63;;;;;;;;;;5064548;28;20204;-31
2022/10/31 12:45:55;;;;;;;7.77;4.73;;;;;;;;;;5070097;28;20197;-28
2022/10/31 12:48:41;;;;;;;6.23;4.90;;;;;;;;;;5066441;28;20284;-31
2022/10/31 12:51:13;;;;;;;9.67;4.80;;;;;;;;;;5067900;28;20221;-32
2022/10/31 12:53:47;;;;;;;5.97;4.80;;;;;;;;;;5068195;28;20227;-31
2022/10/31 12:56:20;;;;;;;7.33;5.00;;;;;;;;;;5061135;28;20189;-34
2022/10/31 12:58:49;;;;;;;9.87;5.50;;;;;;;;;;5057613;28;20297;-32
2022/10/31 13:01:18;;;;;;;10.00;5.03;;;;;;;;;;5068808;28;20293;-31
2022/10/31 13:03:48;;;;;;;10.63;5.17;;;;;;;;;;5068560;28;20228;-31
2022/10/31 13:06:21;;;;;;;13.90;5.67;;;;;;;;;;5065956;28;20259;-28
2022/10/31 13:08:51;;;;;;;10.47;4.93;;;;;;;;;;5071632;28;20193;-33
2022/10/31 13:11:20;;;;;;;9.47;4.87;;;;;;;;;;5074067;28;20267;-35
2022/10/31 13:13:51;;;;;;;12.90;5.30;;;;;;;;;;5068335;28;20202;-29
2022/10/31 13:16:20;;;;;;;9.00;5.00;;;;;;;;;;5061121;28;20292;-31
2022/10/31 13:18:49;;;;;;;7.33;4.70;;;;;;;;;;5070805;28;20223;-30
2022/10/31 13:21:22;;;;;;;12.17;5.20;;;;;;;;;;5061671;28;20231;-32
2022/10/31 13:23:51;;;;;;;9.47;5.73;;;;;;;;;;5061836;28;20294;-33
2022/10/31 13:26:23;;;;;;;8.20;5.10;;;;;;;;;;5061065;28;20201;-29
2022/10/31 13:28:54;;;;;;;10.53;4.93;;;;;;;;;;5052093;28;20278;-33
2022/10/31 13:31:21;;;;;;;10.93;4.83;;;;;;;;;;5064948;28;20222;-31
2022/10/31 13:33:51;;;;;;;9.23;5.33;;;;;;;;;;5063553;28;20210;-30
2022/10/31 13:36:25;;;;;;;7.93;5.10;;;;;;;;;;5059623;28;20198;-35
2022/10/31 13:38:54;;;;;;;8.50;5.17;;;;;;;;;;5059953;28;20189;-33
2022/10/31 13:41:33;;;;;;;8.00;5.00;;;;;;;;;;5050758;28;20236;-32
2022/10/31 13:44:09;;;;;;;9.03;5.63;;;;;;;;;;5061757;28;20237;-31
2022/10/31 13:46:37;;;;;;;9.30;5.50;;;;;;;;;;5490208;22;20296;-34
2022/10/31 13:49:04;;;;;;;8.67;4.93;;;;;;;;;;5093334;28;20205;-34
2022/10/31 13:51:35;;;;;;;6.90;4.80;;;;;;;;;;5115648;27;20278;-31
2022/10/31 13:54:06;;;;;;;10.23;5.37;;;;;;;;;;5119902;27;20200;-32
2022/10/31 13:56:35;;;;;;;8.57;5.60;;;;;;;;;;5118079;27;20208;-33
2022/10/31 13:59:14;;;;;;;8.67;5.17;;;;;;;;;;5127095;27;20199;-34
2022/10/31 14:01:47;;;;;;;9.13;5.30;;;;;;;;;;5124335;27;20219;-30
2022/10/31 14:04:16;;;;;;;12.30;4.90;;;;;;;;;;5109372;27;20210;-33
2022/10/31 14:06:46;;;;;;;7.17;3.70;;;;;;;;;;5122942;27;20210;-35
2022/10/31 14:09:21;;;;;;;7.90;4.33;;;;;;;;;;5121292;27;20199;-32
2022/10/31 14:11:49;;;;;;;8.10;4.73;;;;;;;;;;5127673;27;20254;-34
2022/10/31 14:14:17;;;;;;;6.23;4.30;;;;;;;;;;5124544;27;20206;-31
2022/10/31 14:16:45;;;;;;;7.07;4.17;;;;;;;;;;5121382;27;20206;-34
2022/10/31 14:19:17;;;;;;;10.60;4.67;;;;;;;;;;5117821;27;20210;-32
2022/10/31 14:21:46;;;;;;;6.40;4.87;;;;;;;;;;5112448;27;20224;-32
2022/10/31 14:24:17;;;;;;;5.73;4.53;;;;;;;;;;5117296;27;20206;-32
2022/10/31 14:26:53;;;;;;;8.63;4.13;;;;;;;;;;5108934;28;20287;-35
2022/10/31 14:29:25;;;;;;;12.03;5.07;;;;;;;;;;5112219;27;20286;-32
2022/10/31 14:31:56;;;;;;;7.23;4.97;;;;;;;;;;5127165;27;20264;-31
2022/10/31 14:34:25;;;;;;;9.67;5.00;;;;;;;;;;5115447;27;20290;-34
2022/10/31 14:37:00;;;;;;;11.87;4.30;;;;;;;;;;5124547;27;20295;-31
2022/10/31 14:39:31;;;;;;;6.90;4.40;;;;;;;;;;5108442;28;20210;-29
2022/10/31 14:42:04;;;;;;;10.60;4.63;;;;;;;;;;5110189;27;20226;-31
2022/10/31 14:44:49;;;;;;;7.93;4.33;;;;;;;;;;5125715;27;20377;-31
2022/10/31 14:47:21;;;;;;;8.33;5.47;;;;;;;;;;5109503;27;20211;-34
2022/10/31 14:49:59;;;;;;;11.23;4.37;;;;;;;;;;5117126;27;20206;-34
2022/10/31 14:52:28;;;;;;;7.57;4.40;;;;;;;;;;5124788;27;20195;-35
2022/10/31 14:54:58;;;;;;;9.30;5.57;;;;;;;;;;5112283;27;20204;-32
2022/10/31 14:57:27;;;;;;;6.50;4.60;;;;;;;;;;5109470;27;20203;-34